createdAt,value
2018-09-19T00:00:24.938Z,84.92
2018-09-19T00:01:24.930Z,84.83
2018-09-19T00:02:24.927Z,85.69
2018-09-19T00:03:24.928Z,84.83
2018-09-19T00:04:24.925Z,84.54
2018-09-19T00:05:24.925Z,85.50
2018-09-19T00:06:24.929Z,85.78
2018-09-19T00:07:24.918Z,85.78
2018-09-19T00:08:24.961Z,85.88
2018-09-19T00:09:24.921Z,85.21
2018-09-19T00:10:24.918Z,85.94
2018-09-19T00:11:24.920Z,86.22
2018-09-19T00:12:24.918Z,85.94
2018-09-19T00:13:24.909Z,86.32
2018-09-19T00:14:24.912Z,86.52
2018-09-19T00:15:24.905Z,87.29
2018-09-19T00:16:24.902Z,87.38
2018-09-19T00:17:24.905Z,87.48
2018-09-19T00:18:24.906Z,87.96
2018-09-19T00:19:24.900Z,87.76
2018-09-19T00:20:24.901Z,87.38
2018-09-19T00:21:24.893Z,87.67
2018-09-19T00:22:24.891Z,88.15
2018-09-19T00:23:24.897Z,88.15
2018-09-19T00:24:24.891Z,87.86
2018-09-19T00:25:24.885Z,87.67
2018-09-19T00:26:24.883Z,87.86
2018-09-19T00:27:24.882Z,87.76
2018-09-19T00:28:24.881Z,88.63
2018-09-19T00:29:24.883Z,88.06
2018-09-19T00:30:24.881Z,86.80
2018-09-19T00:31:24.878Z,86.61
2018-09-19T00:32:24.878Z,87.09
2018-09-19T00:33:24.868Z,86.52
2018-09-19T00:34:24.869Z,86.90
2018-09-19T00:35:24.868Z,86.99
2018-09-19T00:36:24.864Z,86.22
2018-09-19T00:37:24.866Z,86.42
2018-09-19T00:38:24.871Z,86.90
2018-09-19T00:39:24.856Z,86.71
2018-09-19T00:40:24.856Z,86.61
2018-09-19T00:41:24.855Z,86.38
2018-09-19T00:42:24.854Z,86.57
2018-09-19T00:43:24.856Z,86.22
2018-09-19T00:44:24.850Z,87.24
2018-09-19T00:45:24.844Z,87.24
2018-09-19T00:46:24.858Z,87.92
2018-09-19T00:47:24.840Z,87.15
2018-09-19T00:48:24.839Z,87.24
2018-09-19T00:49:24.839Z,87.34
2018-09-19T00:50:24.837Z,87.62
2018-09-19T00:51:24.835Z,87.92
2018-09-19T00:52:24.832Z,87.72
2018-09-19T00:53:24.824Z,87.72
2018-09-19T00:54:24.822Z,87.43
2018-09-19T00:55:24.826Z,87.62
2018-09-19T00:56:24.873Z,87.62
2018-09-19T00:57:24.815Z,88.10
2018-09-19T00:58:24.818Z,88.30
2018-09-19T00:59:24.815Z,88.16
2018-09-19T01:00:24.811Z,88.54
2018-09-19T01:01:24.814Z,88.39
2018-09-19T01:02:24.812Z,87.92
2018-09-19T01:03:24.808Z,88.25
2018-09-19T01:04:24.806Z,88.39
2018-09-19T01:05:24.799Z,88.35
2018-09-19T01:06:24.797Z,87.96
2018-09-19T01:07:24.794Z,88.35
2018-09-19T01:08:24.790Z,88.25
2018-09-19T01:09:24.791Z,88.35
2018-09-19T01:10:24.791Z,88.64
2018-09-19T01:11:24.786Z,88.35
2018-09-19T01:12:24.781Z,88.83
2018-09-19T01:13:24.783Z,89.22
2018-09-19T01:14:24.780Z,88.35
2018-09-19T01:15:24.788Z,88.35
2018-09-19T01:16:24.782Z,89.02
2018-09-19T01:17:24.854Z,89.22
2018-09-19T01:18:24.767Z,88.93
2018-09-19T01:19:24.764Z,89.02
2018-09-19T01:20:24.763Z,89.12
2018-09-19T01:21:24.762Z,88.93
2018-09-19T01:22:24.763Z,88.93
2018-09-19T01:23:24.759Z,88.83
2018-09-19T01:24:24.757Z,88.83
2018-09-19T01:25:24.757Z,88.35
2018-09-19T01:26:24.746Z,89.40
2018-09-19T01:27:24.749Z,89.17
2018-09-19T01:28:24.747Z,88.83
2018-09-19T01:29:24.739Z,89.12
2018-09-19T01:30:24.737Z,88.93
2018-09-19T01:31:24.736Z,89.22
2018-09-19T01:32:24.732Z,89.50
2018-09-19T01:33:24.736Z,89.60
2018-09-19T01:34:24.733Z,89.50
2018-09-19T01:35:24.729Z,90.13
2018-09-19T01:36:24.729Z,90.32
2018-09-19T01:37:24.719Z,90.22
2018-09-19T01:38:24.718Z,90.03
2018-09-19T01:39:24.715Z,90.52
2018-09-19T01:40:24.711Z,89.75
2018-09-19T01:41:24.712Z,90.32
2018-09-19T01:42:24.711Z,89.55
2018-09-19T01:43:24.705Z,89.55
2018-09-19T01:44:24.701Z,89.65
2018-09-19T01:45:24.703Z,89.36
2018-09-19T01:46:24.700Z,89.55
2018-09-19T01:47:24.699Z,89.55
2018-09-19T01:48:24.698Z,89.84
2018-09-19T01:49:24.688Z,89.75
2018-09-19T01:50:24.685Z,89.75
2018-09-19T01:51:24.682Z,89.75
2018-09-19T01:52:24.682Z,89.84
2018-09-19T01:53:24.682Z,90.13
2018-09-19T01:54:24.680Z,90.70
2018-09-19T01:55:24.680Z,89.94
2018-09-19T01:56:24.675Z,90.52
2018-09-19T01:57:24.666Z,90.70
2018-09-19T01:58:24.666Z,90.03
2018-09-19T01:59:24.666Z,89.65
2018-09-19T02:00:24.666Z,89.55
2018-09-19T02:01:24.655Z,89.65
2018-09-19T02:02:24.653Z,89.46
2018-09-19T02:03:24.650Z,89.75
2018-09-19T02:04:24.652Z,89.07
2018-09-19T02:05:24.649Z,89.75
2018-09-19T02:06:24.647Z,89.55
2018-09-19T02:07:24.646Z,89.65
2018-09-19T02:08:24.642Z,88.88
2018-09-19T02:09:24.635Z,89.46
2018-09-19T02:10:24.632Z,89.51
2018-09-19T02:11:24.628Z,89.41
2018-09-19T02:12:24.627Z,89.51
2018-09-19T02:13:24.631Z,89.84
2018-09-19T02:14:24.626Z,89.65
2018-09-19T02:15:24.637Z,89.65
2018-09-19T02:16:24.619Z,89.51
2018-09-19T02:17:24.616Z,89.70
2018-09-19T02:18:24.613Z,90.13
2018-09-19T02:19:24.614Z,90.18
2018-09-19T02:20:24.616Z,90.47
2018-09-19T02:21:24.604Z,91.05
2018-09-19T02:22:24.597Z,91.14
2018-09-19T02:23:24.594Z,91.05
2018-09-19T02:24:24.593Z,91.42
2018-09-19T02:25:24.601Z,91.72
2018-09-19T02:26:24.590Z,91.91
2018-09-19T02:27:24.589Z,92.48
2018-09-19T02:28:24.596Z,93.25
2018-09-19T02:29:24.578Z,92.86
2018-09-19T02:30:24.579Z,92.48
2018-09-19T02:31:24.581Z,92.86
2018-09-19T02:32:24.575Z,92.96
2018-09-19T02:33:24.580Z,92.58
2018-09-19T02:34:24.569Z,93.06
2018-09-19T02:35:24.567Z,92.29
2018-09-19T02:36:24.564Z,92.96
2018-09-19T02:37:24.559Z,92.48
2018-09-19T02:38:24.555Z,91.81
2018-09-19T02:39:24.551Z,91.81
2018-09-19T02:40:24.552Z,92.10
2018-09-19T02:41:24.541Z,92.19
2018-09-19T02:42:24.538Z,91.72
2018-09-19T02:43:24.543Z,92.29
2018-09-19T02:44:24.534Z,92.39
2018-09-19T02:45:24.544Z,92.96
2018-09-19T02:46:24.532Z,92.86
2018-09-19T02:47:24.524Z,92.48
2018-09-19T02:48:24.526Z,92.96
2018-09-19T02:49:24.531Z,92.68
2018-09-19T02:50:24.571Z,92.48
2018-09-19T02:51:24.515Z,92.77
2018-09-19T02:52:24.513Z,92.77
2018-09-19T02:53:24.508Z,92.48
2018-09-19T02:54:24.501Z,92.48
2018-09-19T02:55:24.500Z,92.58
2018-09-19T02:56:24.497Z,91.62
2018-09-19T02:57:24.497Z,91.81
2018-09-19T02:58:24.496Z,91.62
2018-09-19T02:59:24.494Z,90.56
2018-09-19T03:00:24.489Z,90.95
2018-09-19T03:01:24.481Z,91.24
2018-09-19T03:02:24.477Z,91.05
2018-09-19T03:03:24.480Z,91.05
2018-09-19T03:04:24.491Z,91.52
2018-09-19T03:05:24.476Z,91.19
2018-09-19T03:06:24.468Z,91.24
2018-09-19T03:07:24.463Z,91.86
2018-09-19T03:08:24.462Z,92.24
2018-09-19T03:09:24.460Z,92.82
2018-09-19T03:10:24.463Z,92.91
2018-09-19T03:11:24.460Z,93.30
2018-09-19T03:12:24.461Z,93.21
2018-09-19T03:13:24.442Z,93.59
2018-09-19T03:14:24.456Z,93.78
2018-09-19T03:15:24.444Z,93.78
2018-09-19T03:16:24.439Z,93.97
2018-09-19T03:17:24.573Z,93.82
2018-09-19T03:18:24.431Z,93.73
2018-09-19T03:19:24.428Z,93.59
2018-09-19T03:20:24.421Z,93.73
2018-09-19T03:21:24.422Z,93.73
2018-09-19T03:22:24.418Z,93.73
2018-09-19T03:23:24.417Z,93.40
2018-09-19T03:24:24.417Z,93.54
2018-09-19T03:25:24.404Z,93.44
2018-09-19T03:26:24.401Z,94.02
2018-09-19T03:27:24.398Z,94.31
2018-09-19T03:28:24.395Z,93.82
2018-09-19T03:29:24.404Z,93.73
2018-09-19T03:30:24.396Z,94.31
2018-09-19T03:31:24.389Z,93.63
2018-09-19T03:32:24.385Z,94.59
2018-09-19T03:33:24.385Z,94.21
2018-09-19T03:34:24.378Z,93.92
2018-09-19T03:35:24.415Z,93.82
2018-09-19T03:36:24.374Z,93.15
2018-09-19T03:37:24.363Z,93.06
2018-09-19T03:38:24.363Z,93.06
2018-09-19T03:39:24.363Z,91.91
2018-09-19T03:40:24.363Z,92.10
2018-09-19T03:41:24.359Z,91.91
2018-09-19T03:42:24.353Z,92.19
2018-09-19T03:43:24.351Z,91.81
2018-09-19T03:44:24.349Z,92.05
2018-09-19T03:45:24.338Z,91.67
2018-09-19T03:46:24.336Z,91.72
2018-09-19T03:47:24.331Z,92.15
2018-09-19T03:48:24.327Z,92.24
2018-09-19T03:49:24.328Z,92.15
2018-09-19T03:50:24.328Z,92.24
2018-09-19T03:51:24.323Z,92.54
2018-09-19T03:52:24.313Z,93.21
2018-09-19T03:53:24.315Z,92.82
2018-09-19T03:54:24.312Z,92.82
2018-09-19T03:55:24.319Z,92.44
2018-09-19T03:56:24.309Z,91.86
2018-09-19T03:57:24.298Z,91.67
2018-09-19T03:58:24.325Z,92.44
2018-09-19T03:59:24.296Z,92.05
2018-09-19T04:00:24.297Z,92.05
2018-09-19T04:01:24.292Z,92.15
2018-09-19T04:02:24.286Z,92.24
2018-09-19T04:03:24.284Z,92.91
2018-09-19T04:04:24.284Z,93.11
2018-09-19T04:05:24.271Z,93.59
2018-09-19T04:06:24.270Z,94.35
2018-09-19T04:07:24.270Z,93.97
2018-09-19T04:08:24.271Z,94.26
2018-09-19T04:09:24.267Z,93.97
2018-09-19T04:10:24.256Z,94.07
2018-09-19T04:11:24.253Z,94.21
2018-09-19T04:12:24.249Z,94.02
2018-09-19T04:13:24.249Z,94.21
2018-09-19T04:14:24.248Z,94.12
2018-09-19T04:15:24.244Z,94.02
2018-09-19T04:16:24.242Z,94.21
2018-09-19T04:17:24.233Z,94.12
2018-09-19T04:18:24.233Z,93.82
2018-09-19T04:19:24.229Z,94.21
2018-09-19T04:20:24.223Z,94.21
2018-09-19T04:21:24.228Z,94.40
2018-09-19T04:22:24.221Z,94.12
2018-09-19T04:23:24.216Z,93.73
2018-09-19T04:24:24.211Z,94.17
2018-09-19T04:25:24.210Z,94.21
2018-09-19T04:26:24.210Z,94.12
2018-09-19T04:27:24.208Z,94.12
2018-09-19T04:28:24.203Z,94.07
2018-09-19T04:29:24.191Z,94.07
2018-09-19T04:30:24.192Z,94.21
2018-09-19T04:31:24.187Z,94.02
2018-09-19T04:32:24.252Z,94.02
2018-09-19T04:33:24.190Z,94.12
2018-09-19T04:34:24.180Z,94.26
2018-09-19T04:35:24.179Z,93.88
2018-09-19T04:36:24.175Z,94.21
2018-09-19T04:37:24.169Z,94.17
2018-09-19T04:38:24.162Z,94.35
2018-09-19T04:39:24.164Z,94.07
2018-09-19T04:40:24.161Z,93.97
2018-09-19T04:41:24.153Z,94.02
2018-09-19T04:42:24.153Z,94.02
2018-09-19T04:43:24.146Z,94.12
2018-09-19T04:44:24.155Z,94.12
2018-09-19T04:45:24.141Z,94.12
2018-09-19T04:46:24.143Z,94.02
2018-09-19T04:47:24.144Z,94.02
2018-09-19T04:48:24.132Z,94.02
2018-09-19T04:49:24.124Z,94.02
2018-09-19T04:50:24.120Z,94.21
2018-09-19T04:51:24.135Z,94.02
2018-09-19T04:52:24.115Z,93.92
2018-09-19T04:53:24.121Z,94.02
2018-09-19T04:54:24.114Z,94.02
2018-09-19T04:55:24.103Z,94.12
2018-09-19T04:56:24.105Z,94.12
2018-09-19T04:57:24.113Z,94.21
2018-09-19T04:58:24.099Z,94.21
2018-09-19T04:59:24.094Z,94.02
2018-09-19T05:00:24.092Z,94.02
2018-09-19T05:01:24.084Z,94.02
2018-09-19T05:02:24.080Z,94.21
2018-09-19T05:03:24.077Z,94.31
2018-09-19T05:04:24.077Z,93.92
2018-09-19T05:05:24.078Z,94.31
2018-09-19T05:06:24.071Z,94.12
2018-09-19T05:07:24.153Z,94.02
2018-09-19T05:08:24.070Z,94.12
2018-09-19T05:09:24.056Z,94.02
2018-09-19T05:10:24.055Z,94.12
2018-09-19T05:11:24.124Z,94.31
2018-09-19T05:12:24.051Z,94.40
2018-09-19T05:13:24.042Z,94.40
2018-09-19T05:14:24.041Z,93.92
2018-09-19T05:15:24.038Z,93.44
2018-09-19T05:16:24.035Z,93.44
2018-09-19T05:17:24.033Z,93.73
2018-09-19T05:18:24.030Z,93.82
2018-09-19T05:19:24.032Z,93.68
2018-09-19T05:20:24.028Z,93.73
2018-09-19T05:21:24.015Z,93.92
2018-09-19T05:22:24.012Z,93.25
2018-09-19T05:23:24.016Z,93.20
2018-09-19T05:24:24.007Z,92.96
2018-09-19T05:25:24.006Z,93.01
2018-09-19T05:26:24.004Z,93.49
2018-09-19T05:27:23.994Z,93.49
2018-09-19T05:28:23.995Z,92.82
2018-09-19T05:29:23.993Z,93.10
2018-09-19T05:30:23.992Z,92.91
2018-09-19T05:31:24.020Z,93.01
2018-09-19T05:32:23.989Z,92.72
2018-09-19T05:33:23.978Z,93.10
2018-09-19T05:34:23.972Z,92.91
2018-09-19T05:35:23.975Z,93.10
2018-09-19T05:36:23.970Z,92.53
2018-09-19T05:37:23.969Z,93.01
2018-09-19T05:38:23.965Z,93.05
2018-09-19T05:39:23.961Z,93.34
2018-09-19T05:40:23.958Z,92.57
2018-09-19T05:41:23.951Z,92.48
2018-09-19T05:42:23.947Z,92.29
2018-09-19T05:43:23.950Z,92.38
2018-09-19T05:44:23.947Z,92.00
2018-09-19T05:45:23.941Z,92.10
2018-09-19T05:46:23.982Z,92.14
2018-09-19T05:47:23.934Z,91.66
2018-09-19T05:48:23.936Z,91.85
2018-09-19T05:49:23.932Z,91.28
2018-09-19T05:50:23.930Z,90.60
2018-09-19T05:51:23.940Z,90.45
2018-09-19T05:52:23.925Z,90.36
2018-09-19T05:53:23.916Z,89.59
2018-09-19T05:54:23.954Z,89.50
2018-09-19T05:55:23.938Z,89.69
2018-09-19T05:56:23.910Z,89.01
2018-09-19T05:57:23.910Z,89.11
2018-09-19T05:58:23.911Z,89.59
2018-09-19T05:59:23.902Z,89.01
2018-09-19T06:00:23.899Z,89.25
2018-09-19T06:01:23.904Z,88.87
2018-09-19T06:02:23.905Z,88.19
2018-09-19T06:03:23.901Z,88.57
2018-09-19T06:04:23.896Z,88.48
2018-09-19T06:05:23.897Z,88.39
2018-09-19T06:06:23.886Z,87.66
2018-09-19T06:07:23.923Z,87.27
2018-09-19T06:08:23.882Z,86.65
2018-09-19T06:09:23.883Z,86.11
2018-09-19T06:10:23.884Z,84.76
2018-09-19T06:11:23.881Z,83.26
2018-09-19T06:12:23.879Z,83.64
2018-09-19T06:13:23.873Z,83.50
2018-09-19T06:14:23.870Z,82.62
2018-09-19T06:15:23.875Z,81.80
2018-09-19T06:16:23.874Z,80.35
2018-09-19T06:17:23.866Z,80.06
2018-09-19T06:18:23.867Z,79.62
2018-09-19T06:19:23.865Z,79.27
2018-09-19T06:20:23.864Z,78.41
2018-09-19T06:21:23.868Z,77.19
2018-09-19T06:22:23.869Z,76.16
2018-09-19T06:23:23.867Z,74.75
2018-09-19T06:24:23.870Z,74.32
2018-09-19T06:25:23.866Z,74.32
2018-09-19T06:26:23.864Z,74.58
2018-09-19T06:27:23.866Z,74.85
2018-09-19T06:28:23.870Z,74.23
2018-09-19T06:29:23.872Z,74.32
2018-09-19T06:30:23.872Z,74.42
2018-09-19T06:31:23.872Z,73.36
2018-09-19T06:32:23.870Z,73.26
2018-09-19T06:33:23.940Z,73.10
2018-09-19T06:34:23.878Z,72.46
2018-09-19T06:35:23.879Z,72.08
2018-09-19T06:36:23.881Z,71.24
2018-09-19T06:37:23.878Z,70.66
2018-09-19T06:38:23.896Z,69.89
2018-09-19T06:39:23.882Z,69.89
2018-09-19T06:40:23.913Z,69.11
2018-09-19T06:41:23.891Z,69.27
2018-09-19T06:42:23.894Z,68.24
2018-09-19T06:43:23.900Z,67.95
2018-09-19T06:44:23.900Z,67.27
2018-09-19T06:45:23.899Z,66.72
2018-09-19T06:46:23.901Z,65.66
2018-09-19T06:47:23.912Z,65.79
2018-09-19T06:48:23.915Z,65.92
2018-09-19T06:49:23.915Z,65.79
2018-09-19T06:50:23.916Z,64.88
2018-09-19T06:51:23.920Z,63.26
2018-09-19T06:52:23.986Z,63.26
2018-09-19T06:53:23.932Z,63.46
2018-09-19T06:54:23.936Z,63.29
2018-09-19T06:55:23.940Z,64.17
2018-09-19T06:56:23.944Z,64.53
2018-09-19T06:57:23.944Z,65.01
2018-09-19T06:58:23.950Z,65.50
2018-09-19T06:59:23.953Z,64.36
2018-09-19T07:00:23.964Z,63.17
2018-09-19T07:01:23.969Z,62.10
2018-09-19T07:02:23.971Z,60.77
2018-09-19T07:03:23.972Z,60.14
2018-09-19T07:04:23.977Z,59.20
2018-09-19T07:05:23.986Z,58.10
2018-09-19T07:06:23.991Z,58.36
2018-09-19T07:07:23.996Z,58.14
2018-09-19T07:08:24.003Z,58.92
2018-09-19T07:09:24.002Z,58.71
2018-09-19T07:10:24.058Z,57.90
2018-09-19T07:11:24.027Z,57.93
2018-09-19T07:12:24.022Z,57.45
2018-09-19T07:13:24.030Z,58.31
2018-09-19T07:14:24.049Z,59.21
2018-09-19T07:15:24.043Z,58.79
2018-09-19T07:16:24.048Z,58.82
2018-09-19T07:17:24.049Z,58.92
2018-09-19T07:18:24.061Z,58.95
2018-09-19T07:19:24.073Z,58.36
2018-09-19T07:20:24.072Z,58.50
2018-09-19T07:21:24.075Z,58.95
2018-09-19T07:22:24.084Z,60.58
2018-09-19T07:23:24.089Z,60.93
2018-09-19T07:24:24.096Z,60.25
2018-09-19T07:25:24.108Z,59.86
2018-09-19T07:26:24.114Z,60.35
2018-09-19T07:27:24.121Z,59.76
2018-09-19T07:28:24.128Z,60.90
2018-09-19T07:29:24.131Z,61.09
2018-09-19T07:30:24.138Z,60.83
2018-09-19T07:31:24.144Z,60.21
2018-09-19T07:32:24.152Z,59.39
2018-09-19T07:33:24.164Z,58.36
2018-09-19T07:34:24.232Z,58.10
2018-09-19T07:35:24.173Z,58.61
2018-09-19T07:36:24.180Z,57.49
2018-09-19T07:37:24.197Z,58.00
2018-09-19T07:38:24.249Z,57.93
2018-09-19T07:39:24.207Z,56.72
2018-09-19T07:40:24.295Z,56.33
2018-09-19T07:41:24.218Z,54.97
2018-09-19T07:42:24.225Z,54.44
2018-09-19T07:43:24.233Z,53.09
2018-09-19T07:44:24.281Z,52.48
2018-09-19T07:45:24.256Z,52.92
2018-09-19T07:46:24.266Z,54.13
2018-09-19T07:47:24.273Z,56.25
2018-09-19T07:48:24.282Z,56.70
2018-09-19T07:49:24.284Z,56.33
2018-09-19T07:50:24.294Z,55.96
2018-09-19T07:51:24.305Z,58.23
2018-09-19T07:52:24.313Z,59.05
2018-09-19T07:53:24.317Z,59.11
2018-09-19T07:54:24.336Z,58.81
2018-09-19T07:55:24.424Z,58.22
2018-09-19T07:56:24.345Z,58.42
2018-09-19T07:57:24.358Z,57.21
2018-09-19T07:58:24.366Z,56.04
2018-09-19T07:59:24.381Z,56.38
2018-09-19T08:00:24.392Z,55.19
2018-09-19T08:01:24.389Z,55.22
2018-09-19T08:02:24.399Z,55.75
2018-09-19T08:03:24.405Z,55.94
2018-09-19T08:04:24.414Z,55.75
2018-09-19T08:05:24.426Z,56.07
2018-09-19T08:06:24.437Z,56.33
2018-09-19T08:07:24.441Z,56.46
2018-09-19T08:08:24.452Z,56.07
2018-09-19T08:09:24.464Z,56.61
2018-09-19T08:10:24.471Z,55.37
2018-09-19T08:11:24.482Z,54.22
2018-09-19T08:12:24.492Z,53.56
2018-09-19T08:13:24.498Z,52.86
2018-09-19T08:14:24.504Z,52.59
2018-09-19T08:15:24.514Z,52.76
2018-09-19T08:16:24.525Z,53.03
2018-09-19T08:17:24.538Z,51.81
2018-09-19T08:18:24.548Z,51.83
2018-09-19T08:19:24.561Z,52.39
2018-09-19T08:20:24.573Z,52.69
2018-09-19T08:21:24.579Z,52.86
2018-09-19T08:22:24.609Z,53.32
2018-09-19T08:23:24.599Z,53.13
2018-09-19T08:24:24.609Z,52.20
2018-09-19T08:25:24.621Z,52.03
2018-09-19T08:26:24.631Z,52.41
2018-09-19T08:27:24.645Z,54.60
2018-09-19T08:28:24.648Z,56.96
2018-09-19T08:29:24.660Z,58.87
2018-09-19T08:30:24.672Z,59.92
2018-09-19T08:31:24.682Z,61.29
2018-09-19T08:32:24.693Z,63.49
2018-09-19T08:33:24.696Z,65.33
2018-09-19T08:34:24.705Z,66.95
2018-09-19T08:35:24.723Z,67.34
2018-09-19T08:36:24.723Z,66.86
2018-09-19T08:37:24.736Z,64.88
2018-09-19T08:38:24.744Z,62.57
2018-09-19T08:39:24.748Z,61.40
2018-09-19T08:40:24.756Z,59.90
2018-09-19T08:41:24.769Z,57.81
2018-09-19T08:42:24.776Z,56.12
2018-09-19T08:43:24.784Z,55.74
2018-09-19T08:44:24.793Z,53.86
2018-09-19T08:45:24.795Z,53.27
2018-09-19T08:46:24.805Z,53.52
2018-09-19T08:47:24.813Z,53.91
2018-09-19T08:48:24.826Z,53.37
2018-09-19T08:49:24.838Z,54.32
2018-09-19T08:50:24.867Z,54.20
2018-09-19T08:51:24.856Z,54.42
2018-09-19T08:52:24.869Z,53.64
2018-09-19T08:53:24.872Z,53.97
2018-09-19T08:54:24.882Z,55.22
2018-09-19T08:55:24.896Z,55.00
2018-09-19T08:56:24.910Z,54.30
2018-09-19T08:57:24.912Z,54.88
2018-09-19T08:58:24.928Z,54.77
2018-09-19T08:59:24.933Z,53.25
2018-09-19T09:00:24.946Z,53.03
2018-09-19T09:01:24.966Z,51.98
2018-09-19T09:02:24.973Z,51.61
2018-09-19T09:03:24.983Z,51.56
2018-09-19T09:04:24.993Z,52.05
2018-09-19T09:05:25.210Z,51.98
2018-09-19T09:06:25.012Z,51.44
2018-09-19T09:07:25.028Z,52.22
2018-09-19T09:08:25.040Z,52.73
2018-09-19T09:09:25.054Z,53.59
2018-09-19T09:10:25.066Z,52.49
2018-09-19T09:11:25.072Z,52.81
2018-09-19T09:12:25.119Z,52.81
2018-09-19T09:13:25.100Z,52.81
2018-09-19T09:14:25.112Z,53.13
2018-09-19T09:15:25.124Z,51.64
2018-09-19T09:16:25.136Z,51.34
2018-09-19T09:17:25.143Z,49.99
2018-09-19T09:18:25.157Z,49.68
2018-09-19T09:19:25.168Z,50.78
2018-09-19T09:20:25.186Z,51.12
2018-09-19T09:21:25.199Z,51.27
2018-09-19T09:22:25.211Z,52.10
2018-09-19T09:23:25.225Z,51.03
2018-09-19T09:24:25.237Z,50.59
2018-09-19T09:25:25.249Z,49.73
2018-09-19T09:26:25.259Z,49.14
2018-09-19T09:27:25.327Z,49.07
2018-09-19T09:28:25.289Z,48.60
2018-09-19T09:29:25.297Z,47.96
2018-09-19T09:30:25.311Z,46.78
2018-09-19T09:31:25.322Z,46.78
2018-09-19T09:32:25.338Z,46.73
2018-09-19T09:33:25.357Z,46.75
2018-09-19T09:34:25.416Z,46.23
2018-09-19T09:35:25.383Z,45.07
2018-09-19T09:36:25.395Z,44.46
2018-09-19T09:37:25.403Z,44.31
2018-09-19T09:38:25.427Z,43.74
2018-09-19T09:39:25.430Z,43.95
2018-09-19T09:40:25.474Z,45.45
2018-09-19T09:41:25.460Z,46.68
2018-09-19T09:42:25.475Z,45.76
2018-09-19T09:43:25.566Z,44.78
2018-09-19T09:44:25.498Z,44.17
2018-09-19T09:45:25.518Z,44.68
2018-09-19T09:46:25.530Z,44.19
2018-09-19T09:47:25.543Z,44.38
2018-09-19T09:48:25.557Z,44.21
2018-09-19T09:49:25.568Z,43.66
2018-09-19T09:50:25.639Z,43.77
2018-09-19T09:51:25.630Z,44.29
2018-09-19T09:52:25.613Z,43.93
2018-09-19T09:53:25.676Z,43.07
2018-09-19T09:54:25.643Z,43.05
2018-09-19T09:55:25.658Z,43.63
2018-09-19T09:56:25.670Z,44.15
2018-09-19T09:57:25.679Z,44.64
2018-09-19T09:58:25.692Z,45.06
2018-09-19T09:59:25.714Z,46.88
2018-09-19T10:00:25.727Z,48.77
2018-09-19T10:01:25.738Z,47.47
2018-09-19T10:02:25.750Z,45.95
2018-09-19T10:03:25.763Z,46.71
2018-09-19T10:04:25.777Z,46.91
2018-09-19T10:05:25.794Z,47.42
2018-09-19T10:06:25.864Z,50.66
2018-09-19T10:07:25.825Z,51.86
2018-09-19T10:08:25.833Z,51.44
2018-09-19T10:09:25.842Z,52.71
2018-09-19T10:10:25.859Z,52.88
2018-09-19T10:11:25.869Z,53.74
2018-09-19T10:12:25.881Z,54.46
2018-09-19T10:13:25.899Z,55.24
2018-09-19T10:14:25.910Z,56.35
2018-09-19T10:15:25.917Z,55.26
2018-09-19T10:16:25.930Z,53.25
2018-09-19T10:17:25.945Z,52.47
2018-09-19T10:18:25.965Z,53.03
2018-09-19T10:19:25.970Z,52.69
2018-09-19T10:20:25.980Z,53.76
2018-09-19T10:21:25.987Z,54.30
2018-09-19T10:22:25.999Z,53.81
2018-09-19T10:23:26.012Z,52.79
2018-09-19T10:24:26.018Z,52.25
2018-09-19T10:25:26.035Z,52.78
2018-09-19T10:26:26.046Z,54.32
2018-09-19T10:27:26.056Z,55.10
2018-09-19T10:28:26.066Z,53.84
2018-09-19T10:29:26.103Z,52.89
2018-09-19T10:30:26.080Z,52.06
2018-09-19T10:31:26.094Z,51.86
2018-09-19T10:32:26.106Z,51.20
2018-09-19T10:33:26.110Z,50.78
2018-09-19T10:34:26.119Z,50.85
2018-09-19T10:35:26.195Z,51.25
2018-09-19T10:36:26.145Z,50.66
2018-09-19T10:37:26.153Z,49.95
2018-09-19T10:38:26.163Z,48.79
2018-09-19T10:39:26.173Z,47.78
2018-09-19T10:40:26.183Z,46.75
2018-09-19T10:41:26.185Z,44.58
2018-09-19T10:42:26.196Z,44.68
2018-09-19T10:43:26.213Z,44.70
2018-09-19T10:44:26.216Z,44.06
2018-09-19T10:45:26.231Z,43.21
2018-09-19T10:46:26.240Z,42.16
2018-09-19T10:47:26.247Z,41.31
2018-09-19T10:48:26.263Z,42.26
2018-09-19T10:49:26.278Z,42.68
2018-09-19T10:50:26.283Z,42.65
2018-09-19T10:51:26.297Z,42.89
2018-09-19T10:52:26.307Z,43.42
2018-09-19T10:53:26.313Z,43.70
2018-09-19T10:54:26.325Z,43.99
2018-09-19T10:55:26.336Z,43.89
2018-09-19T10:56:26.351Z,43.15
2018-09-19T10:57:26.364Z,43.09
2018-09-19T10:58:26.375Z,42.52
2018-09-19T10:59:26.387Z,42.07
2018-09-19T11:00:26.402Z,40.90
2018-09-19T11:01:26.405Z,40.78
2018-09-19T11:02:26.419Z,41.46
2018-09-19T11:03:26.436Z,41.36
2018-09-19T11:04:26.455Z,41.00
2018-09-19T11:05:26.457Z,40.42
2018-09-19T11:06:26.468Z,39.62
2018-09-19T11:07:26.481Z,40.56
2018-09-19T11:08:26.495Z,41.33
2018-09-19T11:09:26.510Z,40.86
2018-09-19T11:10:26.528Z,40.84
2018-09-19T11:11:26.536Z,41.85
2018-09-19T11:12:26.547Z,43.18
2018-09-19T11:13:26.555Z,43.95
2018-09-19T11:14:26.567Z,44.07
2018-09-19T11:15:26.579Z,43.91
2018-09-19T11:16:26.591Z,43.62
2018-09-19T11:17:26.607Z,43.44
2018-09-19T11:18:26.619Z,43.46
2018-09-19T11:19:26.627Z,43.17
2018-09-19T11:20:26.638Z,43.15
2018-09-19T11:21:26.654Z,43.52
2018-09-19T11:22:26.665Z,43.99
2018-09-19T11:23:26.687Z,44.17
2018-09-19T11:24:26.689Z,44.17
2018-09-19T11:25:26.695Z,44.66
2018-09-19T11:26:26.757Z,45.40
2018-09-19T11:27:26.717Z,45.38
2018-09-19T11:28:26.733Z,45.55
2018-09-19T11:29:26.741Z,45.83
2018-09-19T11:30:26.753Z,46.83
2018-09-19T11:31:26.766Z,46.83
2018-09-19T11:32:26.772Z,47.00
2018-09-19T11:33:26.782Z,46.78
2018-09-19T11:34:26.785Z,46.98
2018-09-19T11:35:26.801Z,47.27
2018-09-19T11:36:26.813Z,47.81
2018-09-19T11:37:26.813Z,48.03
2018-09-19T11:38:26.822Z,48.13
2018-09-19T11:39:26.830Z,48.43
2018-09-19T11:40:26.838Z,48.35
2018-09-19T11:41:26.852Z,48.06
2018-09-19T11:42:26.859Z,47.89
2018-09-19T11:43:26.870Z,47.20
2018-09-19T11:44:26.878Z,46.81
2018-09-19T11:45:26.880Z,46.81
2018-09-19T11:46:26.887Z,46.71
2018-09-19T11:47:26.895Z,46.71
2018-09-19T11:48:26.904Z,46.51
2018-09-19T11:49:26.915Z,47.00
2018-09-19T11:50:26.923Z,46.61
2018-09-19T11:51:26.926Z,46.91
2018-09-19T11:52:26.933Z,46.88
2018-09-19T11:53:26.983Z,46.98
2018-09-19T11:54:26.953Z,47.08
2018-09-19T11:55:26.958Z,47.06
2018-09-19T11:56:26.965Z,47.35
2018-09-19T11:57:26.967Z,47.91
2018-09-19T11:58:26.977Z,48.41
2018-09-19T11:59:26.982Z,48.41
2018-09-19T12:00:26.992Z,48.70
2018-09-19T12:01:27.000Z,48.80
2018-09-19T12:02:27.008Z,49.38
2018-09-19T12:03:27.015Z,49.11
2018-09-19T12:04:27.021Z,49.02
2018-09-19T12:05:27.023Z,48.33
2018-09-19T12:06:27.030Z,48.50
2018-09-19T12:07:27.089Z,48.90
2018-09-19T12:08:27.048Z,49.09
2018-09-19T12:09:27.049Z,49.07
2018-09-19T12:10:27.055Z,49.36
2018-09-19T12:11:27.061Z,49.36
2018-09-19T12:12:27.068Z,49.36
2018-09-19T12:13:27.078Z,49.85
2018-09-19T12:14:27.084Z,49.36
2018-09-19T12:15:27.091Z,49.73
2018-09-19T12:16:27.098Z,49.63
2018-09-19T12:17:27.099Z,49.53
2018-09-19T12:18:27.104Z,49.82
2018-09-19T12:19:27.161Z,49.24
2018-09-19T12:20:27.119Z,49.53
2018-09-19T12:21:27.128Z,49.73
2018-09-19T12:22:27.134Z,49.63
2018-09-19T12:23:27.136Z,49.43
2018-09-19T12:24:27.143Z,49.33
2018-09-19T12:25:27.152Z,49.63
2018-09-19T12:26:27.182Z,49.33
2018-09-19T12:27:27.163Z,49.60
2018-09-19T12:28:27.175Z,49.48
2018-09-19T12:29:27.171Z,50.17
2018-09-19T12:30:27.177Z,50.76
2018-09-19T12:31:27.182Z,50.37
2018-09-19T12:32:27.188Z,50.66
2018-09-19T12:33:27.198Z,50.95
2018-09-19T12:34:27.204Z,50.85
2018-09-19T12:35:27.209Z,51.05
2018-09-19T12:36:27.217Z,50.73
2018-09-19T12:37:27.218Z,51.03
2018-09-19T12:38:27.222Z,51.05
2018-09-19T12:39:27.244Z,51.29
2018-09-19T12:40:27.237Z,51.59
2018-09-19T12:41:27.238Z,51.78
2018-09-19T12:42:27.244Z,51.90
2018-09-19T12:43:27.249Z,51.98
2018-09-19T12:44:27.255Z,51.68
2018-09-19T12:45:27.265Z,52.00
2018-09-19T12:46:27.269Z,51.61
2018-09-19T12:47:27.276Z,51.10
2018-09-19T12:48:27.282Z,51.81
2018-09-19T12:49:27.287Z,51.51
2018-09-19T12:50:27.286Z,51.59
2018-09-19T12:51:27.292Z,51.98
2018-09-19T12:52:27.296Z,52.00